Copeland, North Carolina
Current Conditions -  °F | °C
As of 6:15 PM on Saturday 25 Oct 2014 (Local Time) from KMWK Reporting Station
Scattered Clouds Scattered Clouds  
Wind Chill: 68°   Ceiling: Unl
Heat Index: 68°   Visibility: 10mi
Dew Point: 38°   Wind: 0mph
Humidity: 34%   Direction: NA
Pressure: 29.94"   Gusts: NA
Location:  36.3461°N, 80.7011°W
Report Text: KMWK 252215Z AUTO 00000KT 10SM SCT060 20/04 A2994 RMK AO2 T02000035
Loading
Personal Weather Stations






























Interactive Weather Map
Tropical Storm Tracking
New forecast layout! Learn more

10-Day Weather Forecast

Advertisements
Track Severe Weather on mobile